Terminal Aerodrome Forecast
Issued by NWS

Home | Current Version | Previous Version | Graphics & Text | Print | Product List | Glossary Off
Versions: 1 2 3 4 5 6 7 8 9 10 11 12 13 14 15 16 17 18 19 20 21 22 23 24 25 26 27 28 29 30 31 32 33 34 35

000
FTUS43 KDDC 260659 AAA
TAFHYS
TAF AMD
KHYS 260659Z 2607/2706 35016KT P6SM BKN012
     FM260900 36014KT P6SM BKN009
     FM261200 01011G20KT P6SM BKN007=

USA.gov is the U.S. government's official web portal to all federal, state and local government web resources and services.